Time;durP1;ratioP1;P1;durP2;ratioP2;P2;SDS_P1;SDS_P2;PMS_P1;PMS_P2;Temp;Humidity;BMP_temperature;BMP_pressure;BME280_temperature;BME280_humidity;BME280_pressure;Samples;Min_cycle;Max_cycle;Signal;HPM_P1;HPM_P2
2022/09/24 00:01:23;;;;;;;15.15;12.13;;;;;;;16.75;54.75;99545.34;5111621;28;20486;-57
2022/09/24 00:03:56;;;;;;;20.35;11.85;;;;;;;16.74;54.47;99549.00;5111321;28;20377;-59
2022/09/24 00:06:22;;;;;;;17.10;12.82;;;;;;;16.73;54.24;99547.31;5110418;28;20052;-59
2022/09/24 00:08:53;;;;;;;16.73;13.18;;;;;;;16.71;54.82;99543.94;5111080;28;20048;-57
2022/09/24 00:11:22;;;;;;;18.40;12.52;;;;;;;16.72;54.75;99542.97;5111551;28;20081;-58
2022/09/24 00:13:50;;;;;;;15.05;12.50;;;;;;;16.70;55.12;99542.25;5109981;28;20126;-61
2022/09/24 00:16:18;;;;;;;15.25;11.85;;;;;;;16.70;54.78;99539.59;5109951;28;20051;-59
2022/09/24 00:18:45;;;;;;;17.63;13.68;;;;;;;16.70;55.14;99542.25;5111249;28;20052;-59
2022/09/24 00:21:14;;;;;;;17.25;12.70;;;;;;;16.70;55.73;99536.94;5111747;28;20483;-60
2022/09/24 00:23:41;;;;;;;17.25;12.98;;;;;;;16.72;55.06;99534.16;5111142;28;20444;-59
2022/09/24 00:28:57;;;;;;;15.00;11.77;;;;;;;16.73;54.90;99531.38;5111131;28;20109;-61
2022/09/24 00:31:25;;;;;;;16.35;13.00;;;;;;;16.73;55.26;99534.03;5109865;28;20070;-60
2022/09/24 00:33:53;;;;;;;18.30;12.75;;;;;;;16.74;55.25;99533.03;5111145;28;20150;-59
2022/09/24 00:36:21;;;;;;;18.48;13.95;;;;;;;16.76;55.63;99536.44;5109908;28;20451;-59
2022/09/24 00:38:53;;;;;;;16.90;12.55;;;;;;;16.75;55.89;99528.59;5109464;28;20052;-59
2022/09/24 00:41:22;;;;;;;17.33;13.87;;;;;;;16.77;55.62;99535.44;5110957;28;20094;-59
2022/09/24 00:43:49;;;;;;;18.23;13.65;;;;;;;16.78;55.71;99539.78;5109706;28;20047;-61
2022/09/24 00:46:28;;;;;;;20.02;14.57;;;;;;;16.74;56.67;99533.03;5110816;28;20495;-59
2022/09/24 00:49:01;;;;;;;19.65;14.73;;;;;;;16.78;56.49;99528.28;5109517;28;20087;-58
2022/09/24 00:51:29;;;;;;;;;;;;;;;16.77;55.34;99530.13;5111435;28;20108;-60
2022/09/24 00:53:59;;;;;;;19.80;12.95;;;;;;;16.81;56.11;99536.00;5110807;28;20010;-60
2022/09/24 00:56:29;;;;;;;16.77;13.07;;;;;;;16.82;55.80;99531.53;5110867;28;20411;-59
2022/09/24 00:59:01;;;;;;;16.45;13.45;;;;;;;16.80;55.63;99523.69;5109607;28;20047;-59
2022/09/24 01:01:31;;;;;;;17.10;13.38;;;;;;;16.79;55.75;99528.16;5110647;28;20104;-59
2022/09/24 01:04:00;;;;;;;18.25;13.82;;;;;;;16.77;55.67;99524.81;5115174;28;20109;-58
2022/09/24 01:06:26;;;;;;;17.23;13.48;;;;;;;16.77;55.82;99523.97;5114654;28;20055;-59
2022/09/24 01:08:55;;;;;;;18.90;14.02;;;;;;;16.75;56.21;99523.25;5114947;28;20047;-60
2022/09/24 01:11:39;;;;;;;20.27;14.13;;;;;;;16.75;55.95;99517.94;5113449;28;20048;-59
2022/09/24 01:14:20;;;;;;;18.25;13.10;;;;;;;16.71;56.51;99522.66;5114813;28;20105;-60
2022/09/24 01:16:59;;;;;;;17.45;14.30;;;;;;;16.67;56.85;99519.44;5114836;28;20052;-60
2022/09/24 01:19:50;;;;;;;19.65;14.15;;;;;;;16.64;56.65;99519.72;5114734;28;20131;-60
2022/09/24 01:22:38;;;;;;;16.48;13.50;;;;;;;16.61;56.44;99525.31;5114696;28;20051;-60
2022/09/24 01:25:29;;;;;;;20.05;14.55;;;;;;;16.51;56.94;99516.44;5114175;28;20138;-57
2022/09/24 01:28:05;;;;;;;18.70;12.90;;;;;;;16.42;56.64;99518.91;5114593;28;20087;-61
2022/09/24 01:30:37;;;;;;;15.77;12.55;;;;;;;16.35;56.30;99517.75;5114297;28;20087;-59
2022/09/24 01:33:09;;;;;;;16.63;12.50;;;;;;;16.27;56.49;99520.22;5113148;28;20043;-59
2022/09/24 01:36:07;;;;;;;14.48;11.75;;;;;;;16.14;56.92;99517.75;5114527;28;20086;-59
2022/09/24 01:38:39;;;;;;;17.10;11.52;;;;;;;16.11;56.78;99515.38;5098137;27;20047;-56
2022/09/24 01:41:09;;;;;;;15.43;12.27;;;;;;;16.04;56.79;99509.75;5114306;28;20047;-56
2022/09/24 01:43:37;;;;;;;15.20;12.00;;;;;;;15.98;56.39;99516.41;5114194;28;20457;-59
2022/09/24 01:46:05;;;;;;;16.02;13.07;;;;;;;15.93;56.59;99510.63;5113023;28;20044;-59
2022/09/24 01:48:36;;;;;;;15.13;12.77;;;;;;;15.86;57.44;99512.91;5114200;28;20048;-60
2022/09/24 01:51:10;;;;;;;16.67;13.15;;;;;;;15.80;58.05;99508.13;5114091;28;20056;-61
2022/09/24 01:53:49;;;;;;;17.35;11.60;;;;;;;15.75;58.01;99500.53;5114162;28;20105;-59
2022/09/24 01:56:25;;;;;;;15.48;11.60;;;;;;;15.73;57.90;99499.84;5112590;28;20134;-58
2022/09/24 01:59:00;;;;;;;20.20;11.52;;;;;;;15.71;57.92;99495.63;5113859;28;20105;-59
2022/09/24 02:01:36;;;;;;;15.35;11.68;;;;;;;15.68;58.25;99490.56;5113934;28;20134;-60
2022/09/24 02:04:10;;;;;;;13.95;11.10;;;;;;;15.64;57.59;99493.47;5112867;28;20055;-58
2022/09/24 02:06:49;;;;;;;14.88;10.13;;;;;;;15.59;58.26;99498.31;5112300;28;20052;-58
2022/09/24 02:09:36;;;;;;;14.15;10.73;;;;;;;15.55;58.37;99496.88;5112503;28;20059;-57
2022/09/24 02:12:10;;;;;;;15.38;9.73;;;;;;;15.56;58.01;99497.72;5113763;28;20109;-60
2022/09/24 02:14:44;;;;;;;16.17;10.88;;;;;;;15.52;58.64;99488.34;5111395;28;20507;-59
2022/09/24 02:17:11;;;;;;;11.80;9.73;;;;;;;15.53;57.61;99490.88;5113419;28;20044;-61
2022/09/24 02:19:40;;;;;;;14.07;11.43;;;;;;;15.48;58.04;99491.25;5113349;28;20048;-58
2022/09/24 02:22:11;;;;;;;14.98;11.52;;;;;;;15.46;58.56;99490.53;5112053;28;20061;-61
2022/09/24 02:24:48;;;;;;;15.50;11.27;;;;;;;15.43;59.10;99485.47;5113223;28;20044;-58
2022/09/24 02:27:16;;;;;;;14.25;11.65;;;;;;;15.43;58.19;99480.19;5113442;28;20134;-61
2022/09/24 02:29:47;;;;;;;15.63;11.95;;;;;;;15.41;58.22;99476.81;5113516;28;20491;-59
2022/09/24 02:32:18;;;;;;;19.00;11.63;;;;;;;15.40;59.32;99476.94;5113109;28;20126;-56
2022/09/24 02:34:49;;;;;;;17.38;13.50;;;;;;;15.42;59.29;99482.94;5111995;28;20548;-56
2022/09/24 02:37:16;;;;;;;16.23;13.70;;;;;;;15.44;58.90;99481.03;5113122;28;20097;-59
2022/09/24 02:39:43;;;;;;;15.65;12.73;;;;;;;15.46;59.05;99474.63;5112841;28;20083;-58
2022/09/24 02:42:12;;;;;;;17.08;13.10;;;;;;;15.48;59.40;99472.66;5113559;28;20472;-62
2022/09/24 02:44:39;;;;;;;20.02;13.85;;;;;;;15.50;59.00;99468.09;5113279;28;20056;-60
2022/09/24 02:47:06;;;;;;;18.05;12.48;;;;;;;15.50;59.14;99470.75;5113191;28;20079;-62
2022/09/24 02:49:33;;;;;;;17.50;14.05;;;;;;;15.51;59.08;99471.56;5111519;28;20043;-59
2022/09/24 02:51:59;;;;;;;15.43;12.68;;;;;;;15.50;58.92;99468.09;5112935;28;20104;-59
2022/09/24 02:54:26;;;;;;;16.85;12.82;;;;;;;15.49;58.98;99468.22;5112727;28;20096;-59
2022/09/24 02:56:53;;;;;;;24.35;11.88;;;;;;;15.47;59.13;99472.78;5113015;28;20044;-58
2022/09/24 02:59:19;;;;;;;15.32;12.57;;;;;;;15.46;59.23;99468.47;5112702;28;20139;-59
2022/09/24 03:01:46;;;;;;;14.60;12.15;;;;;;;15.45;59.43;99461.47;5112713;27;20043;-60
2022/09/24 03:04:13;;;;;;;16.70;11.77;;;;;;;15.45;59.52;99461.47;5112549;28;20051;-59
2022/09/24 03:06:40;;;;;;;15.15;11.63;;;;;;;15.43;59.52;99469.56;5112494;28;20047;-58
2022/09/24 03:09:06;;;;;;;18.50;13.48;;;;;;;15.42;59.68;99467.03;5112192;28;20131;-60
2022/09/24 03:11:34;;;;;;;16.33;12.07;;;;;;;15.41;59.73;99465.34;5112441;28;20087;-59
2022/09/24 03:14:01;;;;;;;14.77;11.65;;;;;;;15.40;59.71;99469.81;5112552;27;20044;-58
2022/09/24 03:16:27;;;;;;;15.43;12.23;;;;;;;15.40;59.84;99458.38;5112415;28;20056;-59
2022/09/24 03:18:54;;;;;;;17.13;12.02;;;;;;;15.40;59.87;99458.38;5112285;28;20048;-55
2022/09/24 03:21:21;;;;;;;17.80;12.43;;;;;;;15.39;59.80;99459.34;5112307;28;20063;-59
2022/09/24 03:23:48;;;;;;;18.35;12.77;;;;;;;15.39;59.99;99467.31;5110845;28;20621;-60
2022/09/24 03:26:16;;;;;;;15.88;12.85;;;;;;;15.37;60.26;99452.34;5112360;28;20087;-60
2022/09/24 03:28:43;;;;;;;15.68;12.65;;;;;;;15.37;60.19;99459.47;5112218;28;20051;-59
2022/09/24 03:31:10;;;;;;;15.77;12.82;;;;;;;15.36;60.42;99450.66;5112074;27;20047;-58
2022/09/24 03:33:45;;;;;;;15.52;12.07;;;;;;;15.34;61.90;99455.25;5111981;28;20469;-58
2022/09/24 03:36:23;;;;;;;15.32;12.52;;;;;;;15.35;61.88;99456.94;5111806;28;20188;-59
2022/09/24 03:38:53;;;;;;;14.50;12.10;;;;;;;15.39;60.83;99451.41;5112056;28;20039;-58
2022/09/24 03:41:19;;;;;;;14.43;11.70;;;;;;;15.39;60.81;99446.91;5111907;28;20079;-59
2022/09/24 03:43:46;;;;;;;14.73;11.20;;;;;;;15.40;60.82;99445.13;5112106;28;20047;-56
2022/09/24 03:46:14;;;;;;;13.18;11.70;;;;;;;15.40;61.17;99439.81;5111747;27;20051;-58
2022/09/24 03:48:42;;;;;;;17.08;12.52;;;;;;;15.40;61.20;99439.81;5111598;28;20487;-59
2022/09/24 03:51:14;;;;;;;15.93;12.77;;;;;;;15.40;61.58;99437.97;5111898;28;20451;-58
2022/09/24 03:53:41;;;;;;;15.73;13.20;;;;;;;15.43;61.24;99439.53;5111753;28;20083;-60
2022/09/24 03:56:08;;;;;;;15.45;12.43;;;;;;;15.43;61.29;99437.72;5111541;28;20302;-59
2022/09/24 03:58:36;;;;;;;15.27;12.77;;;;;;;15.43;61.37;99436.88;5111532;28;20548;-60
2022/09/24 04:01:08;;;;;;;17.88;12.60;;;;;;;15.41;62.34;99436.19;5111323;28;20083;-60
2022/09/24 04:03:35;;;;;;;14.90;11.98;;;;;;;15.44;61.50;99434.09;5111602;28;20890;-58
2022/09/24 04:06:03;;;;;;;14.88;12.68;;;;;;;15.42;61.60;99429.91;5111249;28;20043;-59
2022/09/24 04:08:30;;;;;;;17.25;13.82;;;;;;;15.43;61.43;99427.13;5111490;28;20092;-59
2022/09/24 04:10:57;;;;;;;16.08;12.88;;;;;;;15.41;61.61;99431.72;5109945;28;20048;-59
2022/09/24 04:13:24;;;;;;;20.65;13.82;;;;;;;15.41;61.56;99429.06;5110062;28;20076;-59
2022/09/24 04:15:52;;;;;;;16.58;14.10;;;;;;;15.41;61.50;99439.69;5111199;28;20103;-59
2022/09/24 04:18:19;;;;;;;18.88;14.68;;;;;;;15.41;61.59;99429.06;5110199;28;20052;-58
2022/09/24 04:20:46;;;;;;;17.80;14.90;;;;;;;15.40;61.70;99426.56;5111034;28;20570;-60
2022/09/24 04:23:13;;;;;;;16.38;14.40;;;;;;;15.40;61.62;99427.38;5110107;28;20051;-59
2022/09/24 04:25:39;;;;;;;16.92;13.65;;;;;;;15.39;61.62;99425.69;5111180;28;20561;-60
2022/09/24 04:28:08;;;;;;;16.45;13.77;;;;;;;15.39;61.86;99423.03;5111064;28;20105;-60
2022/09/24 04:30:35;;;;;;;16.65;14.52;;;;;;;15.40;61.93;99413.28;5111133;28;20128;-59
2022/09/24 04:33:02;;;;;;;17.23;14.77;;;;;;;15.43;62.05;99413.00;5111633;28;20468;-59
2022/09/24 04:35:31;;;;;;;18.48;15.23;;;;;;;15.44;62.16;99414.72;5111079;28;20055;-59
2022/09/24 04:37:58;;;;;;;15.65;13.80;;;;;;;15.46;62.01;99410.13;5110757;28;20082;-59
2022/09/24 04:40:25;;;;;;;18.02;14.25;;;;;;;15.48;61.86;99416.16;5110834;28;20465;-60
2022/09/24 04:42:52;;;;;;;21.00;16.08;;;;;;;15.49;61.77;99423.97;5109595;28;20047;-60
2022/09/24 04:45:19;;;;;;;21.52;15.73;;;;;;;15.49;62.00;99423.97;5111150;28;20083;-59
2022/09/24 04:47:51;;;;;;;17.60;15.43;;;;;;;15.48;62.09;99414.31;5110969;28;20051;-54
2022/09/24 04:50:19;;;;;;;17.90;15.48;;;;;;;15.48;61.95;99419.63;5110880;28;20478;-59
2022/09/24 04:52:45;;;;;;;18.58;15.07;;;;;;;15.48;61.89;99413.50;5110908;28;20047;-58
2022/09/24 04:55:12;;;;;;;18.45;14.90;;;;;;;15.48;62.14;99413.50;5110770;28;20083;-58
2022/09/24 04:57:40;;;;;;;16.75;14.65;;;;;;;15.49;62.14;99420.47;5110619;28;20098;-60
2022/09/24 05:00:10;;;;;;;17.83;15.40;;;;;;;15.48;62.36;99419.63;5110921;28;20048;-59
2022/09/24 05:02:36;;;;;;;20.60;16.45;;;;;;;15.49;62.17;99421.31;5110742;28;20561;-60
2022/09/24 05:05:03;;;;;;;17.52;15.45;;;;;;;15.48;62.06;99430.22;5110668;28;20048;-59
2022/09/24 05:07:30;;;;;;;19.30;16.08;;;;;;;15.46;62.26;99426.88;5110731;28;20128;-58
2022/09/24 05:09:56;;;;;;;18.63;15.93;;;;;;;15.44;62.22;99425.31;5110468;28;20052;-59
2022/09/24 05:12:23;;;;;;;19.33;15.73;;;;;;;15.41;62.23;99422.91;5110631;28;20083;-57
2022/09/24 05:14:49;;;;;;;18.90;15.65;;;;;;;15.38;62.45;99426.66;5110669;28;20086;-59
2022/09/24 05:17:16;;;;;;;18.10;15.95;;;;;;;15.35;62.82;99425.13;5110679;28;20079;-56
2022/09/24 05:19:42;;;;;;;16.80;15.00;;;;;;;15.34;62.75;99428.75;5110924;28;20094;-58
2022/09/24 05:22:09;;;;;;;16.70;14.32;;;;;;;15.32;62.73;99427.16;5110574;28;20090;-59
2022/09/24 05:24:35;;;;;;;15.98;14.25;;;;;;;15.31;62.92;99428.13;5109123;28;20085;-56
2022/09/24 05:27:22;;;;;;;17.40;15.15;;;;;;;15.31;62.86;99426.34;5110243;28;20132;-59
2022/09/24 05:29:49;;;;;;;16.92;14.85;;;;;;;15.30;62.88;99429.09;5110515;28;20052;-58
2022/09/24 05:32:18;;;;;;;15.73;14.07;;;;;;;15.29;63.22;99425.59;5110515;28;20094;-57
2022/09/24 05:34:45;;;;;;;17.75;15.60;;;;;;;15.29;63.20;99427.44;5109083;28;20089;-56
2022/09/24 05:37:13;;;;;;;18.15;14.52;;;;;;;15.27;63.25;99427.56;5109213;28;20568;-59
2022/09/24 05:39:40;;;;;;;16.67;13.82;;;;;;;15.28;63.16;99431.06;5109070;28;20048;-57
2022/09/24 05:42:13;;;;;;;18.58;14.13;;;;;;;15.24;64.22;99428.66;5110496;28;20079;-57
2022/09/24 05:44:40;;;;;;;17.90;14.38;;;;;;;15.25;63.45;99426.81;5109234;28;20044;-59
2022/09/24 05:47:07;;;;;;;18.52;14.50;;;;;;;15.24;63.35;99441.91;5110389;28;20130;-57
2022/09/24 05:49:33;;;;;;;17.60;14.23;;;;;;;15.25;63.63;99440.09;5111570;28;20332;-56
2022/09/24 05:52:00;;;;;;;18.08;12.93;;;;;;;15.25;63.65;99440.09;5114413;28;20078;-55
2022/09/24 05:54:27;;;;;;;16.92;14.23;;;;;;;15.26;63.62;99440.94;5113855;28;20087;-58
2022/09/24 05:56:53;;;;;;;18.58;14.23;;;;;;;15.27;63.70;99440.81;5114039;28;20102;-56
2022/09/24 05:59:20;;;;;;;16.88;13.25;;;;;;;15.29;63.70;99443.34;5113735;28;20134;-58
2022/09/24 06:01:47;;;;;;;16.67;13.77;;;;;;;15.30;63.97;99431.75;5113872;28;20051;-60
2022/09/24 06:04:14;;;;;;;17.33;13.25;;;;;;;15.31;63.72;99436.94;5113640;28;20051;-58
2022/09/24 06:06:42;;;;;;;16.83;14.43;;;;;;;15.33;63.81;99442.13;5112572;28;20078;-59
2022/09/24 06:09:08;;;;;;;16.23;13.88;;;;;;;15.33;63.89;99435.00;5113479;28;20083;-59
2022/09/24 06:11:35;;;;;;;18.42;13.80;;;;;;;15.36;63.95;99439.19;5113738;28;20566;-58
2022/09/24 06:14:07;;;;;;;17.05;13.95;;;;;;;15.37;63.91;99432.94;5113750;28;20044;-61
2022/09/24 06:16:34;;;;;;;17.73;14.52;;;;;;;15.38;63.96;99439.94;5113690;28;20116;-59
2022/09/24 06:19:01;;;;;;;17.85;15.77;;;;;;;15.39;63.94;99438.13;5113549;27;20139;-57
2022/09/24 06:21:28;;;;;;;16.92;14.70;;;;;;;15.40;64.02;99443.28;5113691;28;20071;-58
2022/09/24 06:23:54;;;;;;;18.88;14.52;;;;;;;15.41;64.22;99442.34;5113520;28;20066;-58
2022/09/24 06:26:21;;;;;;;19.45;14.95;;;;;;;15.43;64.22;99450.16;5113347;28;20073;-59
2022/09/24 06:28:48;;;;;;;15.65;13.93;;;;;;;15.44;63.99;99449.19;5113217;28;20052;-59
2022/09/24 06:31:14;;;;;;;16.25;14.55;;;;;;;15.45;64.01;99451.72;5113139;28;20591;-59
2022/09/24 06:33:41;;;;;;;20.73;16.17;;;;;;;15.46;64.24;99452.56;5113657;28;20062;-59
2022/09/24 06:36:08;;;;;;;19.77;16.70;;;;;;;15.46;64.27;99458.72;5113292;28;20105;-59
2022/09/24 06:38:35;;;;;;;20.42;16.35;;;;;;;15.46;64.11;99452.56;5113165;28;20047;-58
2022/09/24 06:41:03;;;;;;;16.45;14.50;;;;;;;15.45;64.47;99449.06;5113177;28;20059;-59
2022/09/24 06:43:32;;;;;;;21.48;16.13;;;;;;;15.46;64.37;99458.72;5113158;27;20043;-58
2022/09/24 06:45:59;;;;;;;19.17;16.38;;;;;;;15.47;64.24;99454.22;5112961;28;20090;-58
2022/09/24 06:48:27;;;;;;;17.00;14.75;;;;;;;15.46;64.35;99448.09;5113062;28;20087;-58
2022/09/24 06:50:55;;;;;;;19.15;15.90;;;;;;;15.47;64.40;99448.91;5111519;28;20055;-59
2022/09/24 06:53:22;;;;;;;17.98;16.08;;;;;;;15.47;64.43;99454.22;5112946;28;20407;-59
2022/09/24 06:55:48;;;;;;;17.65;14.80;;;;;;;15.47;64.40;99457.72;5112764;28;20055;-59
2022/09/24 06:58:18;;;;;;;22.58;16.55;;;;;;;15.48;64.79;99450.63;5112606;28;20079;-57
2022/09/24 07:00:53;;;;;;;16.08;14.27;;;;;;;15.47;65.44;99455.09;5112280;28;20051;-59
2022/09/24 07:03:20;;;;;;;16.40;14.52;;;;;;;15.52;64.61;99462.66;5111339;28;20048;-57
2022/09/24 07:05:47;;;;;;;18.13;16.23;;;;;;;15.55;64.72;99459.75;5110330;28;20075;-60
2022/09/24 07:08:14;;;;;;;19.35;15.38;;;;;;;15.58;64.74;99461.28;5108340;28;20076;-59
2022/09/24 07:10:42;;;;;;;17.95;16.00;;;;;;;15.59;64.71;99461.16;5107924;27;20043;-58
2022/09/24 07:13:11;;;;;;;16.88;15.05;;;;;;;15.60;64.93;99462.88;5110287;28;20040;-60
2022/09/24 07:15:39;;;;;;;18.50;16.52;;;;;;;15.61;64.47;99467.22;5111678;28;20047;-65
2022/09/24 07:18:06;;;;;;;17.02;15.10;;;;;;;15.63;64.78;99464.44;5104655;28;20193;-59
2022/09/24 07:20:35;;;;;;;17.85;15.60;;;;;;;15.64;64.69;99461.63;5112004;28;20079;-57
2022/09/24 07:23:03;;;;;;;17.60;14.95;;;;;;;15.66;64.85;99468.63;5112036;28;20035;-58
2022/09/24 07:25:30;;;;;;;17.38;15.13;;;;;;;15.67;64.81;99465.88;5112251;28;20048;-54
2022/09/24 07:28:05;;;;;;;16.88;14.10;;;;;;;15.70;65.63;99473.53;5112117;28;20052;-56
2022/09/24 07:30:32;;;;;;;17.65;15.07;;;;;;;15.74;64.84;99467.00;5112273;28;20112;-56
2022/09/24 07:32:59;;;;;;;18.88;15.55;;;;;;;15.79;64.85;99471.94;5110829;28;20049;-56
2022/09/24 07:35:27;;;;;;;18.25;15.75;;;;;;;15.83;64.93;99472.53;5110562;28;20078;-55
2022/09/24 07:38:00;;;;;;;17.33;15.52;;;;;;;15.83;65.60;99469.88;5110782;28;20085;-55
2022/09/24 07:40:27;;;;;;;18.00;14.90;;;;;;;15.87;64.76;99473.94;5110009;28;20081;-60
2022/09/24 07:42:55;;;;;;;16.88;14.88;;;;;;;15.88;64.76;99467.66;5108999;28;20070;-59
2022/09/24 07:45:23;;;;;;;21.08;16.63;;;;;;;15.88;64.88;99468.53;5110249;28;20052;-58
2022/09/24 07:47:58;;;;;;;17.73;14.82;;;;;;;15.87;65.82;99474.81;5109986;28;20097;-57
2022/09/24 07:50:26;;;;;;;17.65;15.40;;;;;;;15.92;65.09;99470.94;5110189;28;20071;-59
2022/09/24 07:52:53;;;;;;;17.45;15.45;;;;;;;15.96;65.01;99481.16;5110052;28;20094;-59
2022/09/24 07:55:20;;;;;;;18.40;15.55;;;;;;;15.98;65.18;99481.03;5110521;28;20104;-56
2022/09/24 07:57:49;;;;;;;16.15;14.10;;;;;;;16.02;65.09;99485.97;5110370;28;20073;-55
2022/09/24 08:00:16;;;;;;;20.42;15.73;;;;;;;16.06;65.33;99486.53;5111329;28;20466;-58
2022/09/24 08:02:44;;;;;;;20.67;15.95;;;;;;;16.10;65.21;99485.31;5110217;28;20043;-59
2022/09/24 08:05:11;;;;;;;19.42;15.18;;;;;;;16.15;65.21;99490.25;5111349;28;20051;-57
2022/09/24 08:07:38;;;;;;;17.98;15.40;;;;;;;16.18;65.20;99483.84;5111552;28;20381;-55
2022/09/24 08:10:05;;;;;;;16.77;14.48;;;;;;;16.23;65.08;99489.59;5111291;28;20180;-60
2022/09/24 08:12:31;;;;;;;18.65;15.52;;;;;;;16.26;65.04;99492.81;5110563;28;20556;-57
2022/09/24 08:14:58;;;;;;;17.00;14.65;;;;;;;16.30;65.12;99490.75;5111440;28;20051;-53
2022/09/24 08:17:25;;;;;;;16.52;14.50;;;;;;;16.34;65.04;99488.66;5111171;28;20075;-60
2022/09/24 08:19:55;;;;;;;17.13;14.00;;;;;;;16.38;65.17;99493.56;5111330;28;20087;-60
2022/09/24 08:22:23;;;;;;;18.13;15.32;;;;;;;16.44;65.00;99494.88;5109991;28;20062;-58
2022/09/24 08:24:50;;;;;;;18.30;14.80;;;;;;;16.49;65.03;99487.34;5111200;28;20083;-58
2022/09/24 08:27:20;;;;;;;17.88;15.00;;;;;;;16.53;64.86;99488.75;5111062;28;20039;-58
2022/09/24 08:29:47;;;;;;;18.63;15.35;;;;;;;16.57;64.70;99489.34;5109753;28;20048;-59
2022/09/24 08:32:13;;;;;;;19.48;15.00;;;;;;;16.62;64.75;99488.94;5109927;28;20097;-59
2022/09/24 08:34:40;;;;;;;17.30;14.75;;;;;;;16.65;65.00;99496.66;5111102;28;20086;-59
2022/09/24 08:37:07;;;;;;;17.20;15.02;;;;;;;16.70;64.82;99493.59;5111134;28;20048;-58
2022/09/24 08:39:34;;;;;;;15.77;13.90;;;;;;;16.73;64.65;99494.16;5110870;28;20043;-59
2022/09/24 08:42:04;;;;;;;18.20;15.35;;;;;;;16.76;64.62;99488.59;5109859;28;20051;-58
2022/09/24 08:47:28;;;;;;;16.48;14.18;;;;;;;16.82;64.73;99497.00;5110867;28;20079;-60
2022/09/24 08:50:20;;;;;;;15.18;13.10;;;;;;;16.82;64.93;99497.81;5110804;28;20056;-58
2022/09/24 08:52:58;;;;;;;17.33;14.70;;;;;;;16.89;65.08;99500.78;5110832;28;20051;-59
2022/09/24 08:55:28;;;;;;;17.88;15.68;;;;;;;16.95;64.11;99505.56;5109836;28;20048;-59
2022/09/24 08:58:13;;;;;;;18.98;15.57;;;;;;;16.93;64.90;99503.03;5109695;28;20461;-58
2022/09/24 09:00:49;;;;;;;22.67;16.55;;;;;;;16.97;64.55;99506.25;5111306;28;20091;-60
2022/09/24 09:03:35;;;;;;;18.33;15.57;;;;;;;16.98;64.56;99513.28;5109500;28;20120;-59
2022/09/24 09:06:09;;;;;;;19.50;15.95;;;;;;;17.04;64.25;99512.75;5109705;28;20136;-57
2022/09/24 09:09:03;;;;;;;20.05;16.60;;;;;;;17.03;64.40;99516.38;5109484;28;20052;-56
2022/09/24 09:12:00;;;;;;;20.25;16.13;;;;;;;17.06;64.93;99520.59;5109564;28;20044;-60
2022/09/24 09:14:54;;;;;;;20.42;16.65;;;;;;;17.08;64.49;99515.97;5109548;28;20047;-59
2022/09/24 09:17:51;;;;;;;20.75;16.42;;;;;;;17.11;64.83;99506.88;5110684;28;20488;-58
2022/09/24 09:20:22;;;;;;;20.58;16.58;;;;;;;17.19;64.42;99509.72;5109004;28;20047;-57
2022/09/24 09:22:50;;;;;;;23.08;17.55;;;;;;;17.25;64.15;99510.97;5110966;28;20083;-62
2022/09/24 09:25:28;;;;;;;22.52;16.90;;;;;;;17.28;64.66;99513.38;5113353;28;20186;-59
2022/09/24 09:28:13;;;;;;;20.48;17.02;;;;;;;17.36;64.58;99520.66;5114544;28;20416;-59
2022/09/24 09:31:05;;;;;;;22.83;17.70;;;;;;;17.39;64.27;99518.59;5115021;28;20101;-59
2022/09/24 09:34:03;;;;;;;21.23;17.60;;;;;;;17.47;64.43;99520.56;5114541;28;20457;-57
2022/09/24 09:36:38;;;;;;;24.23;18.80;;;;;;;17.54;63.85;99521.66;5114403;28;20142;-59
2022/09/24 09:39:36;;;;;;;21.05;17.55;;;;;;;17.55;63.74;99520.69;5114096;28;20092;-59
2022/09/24 09:42:25;;;;;;;20.67;16.77;;;;;;;17.57;63.44;99513.41;5114324;28;20047;-58
2022/09/24 09:44:52;;;;;;;20.85;17.23;;;;;;;17.60;62.95;99514.94;5114133;28;20492;-58
2022/09/24 09:47:36;;;;;;;21.10;17.80;;;;;;;17.56;63.40;99522.38;5114369;28;20411;-60
2022/09/24 09:50:17;;;;;;;22.85;17.88;;;;;;;17.56;63.34;99517.06;5113845;28;20075;-57
2022/09/24 09:52:44;;;;;;;19.85;16.70;;;;;;;17.58;63.23;99517.75;5114154;28;20051;-59
2022/09/24 09:55:26;;;;;;;22.13;18.38;;;;;;;17.54;63.55;99521.66;5113971;28;20083;-58
2022/09/24 09:58:08;;;;;;;21.38;17.23;;;;;;;17.55;63.13;99520.69;5113961;28;20431;-56
2022/09/24 10:00:35;;;;;;;20.58;17.67;;;;;;;17.59;62.92;99521.25;5114013;28;20048;-58
2022/09/24 10:03:02;;;;;;;21.42;17.10;;;;;;;17.57;62.84;99516.06;5114027;28;20048;-58
2022/09/24 10:05:30;;;;;;;21.60;17.10;;;;;;;17.57;62.94;99516.06;5114154;28;20086;-60
2022/09/24 10:07:56;;;;;;;19.13;16.77;;;;;;;17.56;62.82;99522.38;5113594;28;20097;-57
2022/09/24 10:10:26;;;;;;;20.25;17.33;;;;;;;17.54;63.02;99529.63;5113795;28;20079;-57
2022/09/24 10:13:10;;;;;;;20.10;16.83;;;;;;;17.51;63.42;99529.09;5113940;28;20047;-56
2022/09/24 10:16:04;;;;;;;19.55;16.42;;;;;;;17.50;63.60;99522.09;5113767;28;20081;-59
2022/09/24 10:18:33;;;;;;;18.50;15.15;;;;;;;17.54;62.84;99529.63;5113509;28;20105;-59
2022/09/24 10:21:04;;;;;;;18.35;14.80;;;;;;;17.53;63.00;99527.16;5113749;28;20073;-58
2022/09/24 10:23:48;;;;;;;17.23;13.77;;;;;;;17.49;62.92;99523.91;5113693;28;20158;-59
2022/09/24 10:26:15;;;;;;;16.33;14.13;;;;;;;17.52;62.22;99526.28;5113261;28;20557;-57
2022/09/24 10:31:36;;;;;;;14.65;12.30;;;;;;;17.48;62.57;99524.88;5113495;28;20134;-58
2022/09/24 10:34:16;;;;;;;14.82;12.00;;;;;;;17.45;62.47;99519.84;5112591;28;20500;-59
2022/09/24 10:36:51;;;;;;;15.15;12.32;;;;;;;17.43;62.64;99516.47;5113143;28;20488;-57
2022/09/24 10:39:20;;;;;;;17.15;11.98;;;;;;;17.43;62.72;99517.31;5112882;28;20079;-56
2022/09/24 10:41:49;;;;;;;14.07;10.55;;;;;;;17.42;62.37;99523.63;5113212;28;20047;-58
2022/09/24 10:44:17;;;;;;;14.38;10.85;;;;;;;17.43;62.90;99525.28;5113268;28;20145;-59
2022/09/24 10:47:06;;;;;;;13.93;10.85;;;;;;;17.41;63.07;99513.94;5113056;28;20079;-57
2022/09/24 10:49:42;;;;;;;12.57;10.32;;;;;;;17.48;62.73;99521.38;5112781;28;20051;-60
2022/09/24 10:52:37;;;;;;;12.98;10.50;;;;;;;17.51;63.04;99532.59;5112904;28;20105;-59
2022/09/24 10:55:27;;;;;;;10.77;9.15;;;;;;;17.55;63.06;99531.34;5112770;28;20079;-60
2022/09/24 10:57:56;;;;;;;12.27;9.85;;;;;;;17.66;63.05;99526.84;5112896;28;20052;-58
2022/09/24 11:00:31;;;;;;;10.75;9.63;;;;;;;17.73;62.98;99532.47;5112361;28;20457;-59
2022/09/24 11:03:32;;;;;;;12.55;9.85;;;;;;;17.80;62.78;99529.09;5112826;28;20074;-58
2022/09/24 11:06:30;;;;;;;10.15;9.10;;;;;;;17.93;62.41;99527.97;5109526;28;20047;-62
2022/09/24 11:09:34;;;;;;;10.57;9.07;;;;;;;18.00;62.31;99521.09;5112510;28;20083;-59
2022/09/24 11:12:31;;;;;;;12.77;9.60;;;;;;;18.08;62.37;99521.28;5112808;28;20130;-60
2022/09/24 11:15:52;;;;;;;10.82;8.95;;;;;;;18.18;62.71;99521.28;5112635;28;20504;-60
2022/09/24 11:18:33;;;;;;;11.10;9.68;;;;;;;18.27;61.76;99519.56;5049060;28;20499;-58
2022/09/24 11:21:30;;;;;;;11.90;9.95;;;;;;;18.34;61.50;99520.66;5112079;28;20051;-59
2022/09/24 11:24:26;;;;;;;12.30;9.63;;;;;;;18.44;61.70;99522.47;5112391;28;20047;-59
2022/09/24 11:27:30;;;;;;;10.50;9.18;;;;;;;18.51;61.33;99515.56;5112051;28;20051;-59
2022/09/24 11:30:08;;;;;;;;;;;;;;;18.61;61.46;99521.69;5112611;28;20105;-58
2022/09/24 11:32:57;;;;;;;11.50;9.00;;;;;;;18.67;61.02;99522.94;5112166;28;19999;-62
2022/09/24 11:35:38;;;;;;;10.57;8.57;;;;;;;18.70;60.73;99521.81;5111995;28;20083;-57
2022/09/24 11:38:09;;;;;;;11.00;9.13;;;;;;;18.76;60.67;99523.88;5112134;28;20079;-59
2022/09/24 11:41:04;;;;;;;11.15;9.55;;;;;;;18.72;60.95;99518.00;5112255;28;20094;-59
2022/09/24 11:43:47;;;;;;;11.18;9.55;;;;;;;18.79;60.84;99512.09;5112106;28;20134;-59
2022/09/24 11:46:46;;;;;;;11.10;9.38;;;;;;;18.82;60.20;99523.31;5110978;28;20047;-59
2022/09/24 11:49:27;;;;;;;11.10;9.15;;;;;;;18.83;60.30;99525.00;5111830;28;20087;-58
2022/09/24 11:52:09;;;;;;;12.93;10.02;;;;;;;18.83;59.65;99518.81;5110487;28;20569;-59